Time;durP1;ratioP1;P1;durP2;ratioP2;P2;SDS_P1;SDS_P2;PMS_P1;PMS_P2;Temp;Humidity;BMP_temperature;BMP_pressure;BME280_temperature;BME280_humidity;BME280_pressure;Samples;Min_cycle;Max_cycle;Signal;HPM_P1;HPM_P2
2022/03/11 00:02:16;;;;;;;25.27;15.05;;;1.40;91.60;;;;;;4971409;28;20030;-53
2022/03/11 00:04:42;;;;;;;22.73;15.32;;;1.40;90.80;;;;;;4970473;28;20023;-53
2022/03/11 00:07:08;;;;;;;22.90;14.18;;;1.40;90.50;;;;;;4970557;28;20118;-53
2022/03/11 00:09:34;;;;;;;23.50;14.23;;;1.30;90.40;;;;;;4970566;28;20031;-52
2022/03/11 00:12:00;;;;;;;24.13;14.52;;;1.30;90.30;;;;;;4968976;28;20110;-54
2022/03/11 00:14:25;;;;;;;23.50;14.63;;;1.30;90.20;;;;;;4971030;28;20620;-54
2022/03/11 00:16:51;;;;;;;26.95;14.35;;;1.30;89.90;;;;;;4969076;28;20030;-54
2022/03/11 00:19:16;;;;;;;26.40;13.70;;;1.30;89.50;;;;;;4970139;28;20066;-53
2022/03/11 00:21:42;;;;;;;17.05;13.30;;;1.30;89.40;;;;;;4984032;28;20118;-54
2022/03/11 00:24:08;;;;;;;22.67;14.05;;;1.20;89.30;;;;;;4970735;28;20445;-54
2022/03/11 00:26:34;;;;;;;19.38;13.68;;;1.20;89.40;;;;;;4969752;28;20732;-55
2022/03/11 00:29:00;;;;;;;22.98;14.20;;;1.10;89.20;;;;;;4985274;28;20047;-55
2022/03/11 00:31:28;;;;;;;20.50;13.20;;;1.00;89.50;;;;;;4969969;28;20034;-55
2022/03/11 00:33:54;;;;;;;19.63;14.13;;;1.00;88.90;;;;;;4970223;28;20590;-55
2022/03/11 00:36:19;;;;;;;21.52;12.50;;;1.10;88.20;;;;;;4970512;28;20374;-54
2022/03/11 00:38:45;;;;;;;18.63;13.02;;;1.10;87.20;;;;;;4969866;28;20038;-53
2022/03/11 00:41:11;;;;;;;19.50;12.15;;;1.10;87.40;;;;;;4970549;28;20098;-53
2022/03/11 00:43:36;;;;;;;18.40;11.90;;;1.00;86.20;;;;;;4969627;28;20085;-54
2022/03/11 00:46:02;;;;;;;26.80;13.05;;;1.10;85.10;;;;;;4970796;28;20548;-54
2022/03/11 00:48:28;;;;;;;22.00;11.00;;;1.10;85.00;;;;;;4969804;28;20030;-54
2022/03/11 00:50:54;;;;;;;16.38;12.15;;;1.10;85.20;;;;;;4970630;28;20105;-55
2022/03/11 00:53:19;;;;;;;15.38;12.90;;;1.10;85.30;;;;;;4970527;28;20035;-53
2022/03/11 00:55:46;;;;;;;16.75;11.60;;;1.00;84.80;;;;;;4969614;28;20113;-53
2022/03/11 00:58:11;;;;;;;17.63;11.65;;;0.90;84.80;;;;;;4970385;28;20042;-52
2022/03/11 01:00:37;;;;;;;17.10;11.48;;;0.90;84.20;;;;;;4969871;28;20162;-54
2022/03/11 01:03:03;;;;;;;16.75;12.52;;;0.90;83.40;;;;;;4969653;28;20030;-55
2022/03/11 01:05:28;;;;;;;15.50;11.32;;;0.90;83.40;;;;;;4969990;28;20019;-54
2022/03/11 01:07:56;;;;;;;16.88;11.75;;;1.00;82.90;;;;;;4970012;28;20050;-54
2022/03/11 01:10:22;;;;;;;15.57;10.48;;;0.90;82.40;;;;;;4969045;28;20445;-53
2022/03/11 01:12:48;;;;;;;17.17;10.77;;;0.90;82.20;;;;;;4967305;28;20018;-53
2022/03/11 01:15:13;;;;;;;14.75;10.10;;;0.80;82.10;;;;;;4969980;28;20038;-54
2022/03/11 01:17:39;;;;;;;15.32;10.95;;;0.70;82.50;;;;;;4969247;28;20027;-55
2022/03/11 01:20:06;;;;;;;15.75;11.40;;;0.60;82.70;;;;;;4970404;28;20023;-55
2022/03/11 01:22:32;;;;;;;18.50;11.70;;;0.60;83.10;;;;;;4969059;28;20058;-53
2022/03/11 01:24:58;;;;;;;13.50;10.02;;;0.50;83.60;;;;;;4969693;28;20077;-55
2022/03/11 01:27:23;;;;;;;15.55;9.82;;;0.40;83.90;;;;;;4969604;28;20178;-54
2022/03/11 01:29:49;;;;;;;16.15;9.95;;;0.30;84.00;;;;;;4970050;28;20046;-53
2022/03/11 01:32:15;;;;;;;14.50;10.45;;;0.20;83.90;;;;;;4970103;28;20398;-53
2022/03/11 01:34:41;;;;;;;15.32;9.68;;;0.10;83.90;;;;;;4969676;28;20030;-53
2022/03/11 01:37:07;;;;;;;15.57;10.63;;;0.10;83.90;;;;;;4970146;28;20438;-53
2022/03/11 01:39:32;;;;;;;13.75;10.13;;;0.00;84.10;;;;;;4969228;28;20394;-54
2022/03/11 01:41:58;;;;;;;20.38;9.88;;;-0.10;84.40;;;;;;4970234;28;20055;-54
2022/03/11 01:44:25;;;;;;;12.75;8.70;;;-0.10;84.40;;;;;;4969645;28;20117;-55
2022/03/11 01:46:52;;;;;;;14.13;10.00;;;-0.20;84.80;;;;;;4969856;28;20053;-54
2022/03/11 01:49:17;;;;;;;13.30;9.32;;;-0.30;84.80;;;;;;4969102;28;20106;-53
2022/03/11 01:51:44;;;;;;;12.75;9.73;;;-0.30;84.80;;;;;;4969375;28;20053;-54
2022/03/11 01:54:10;;;;;;;13.88;9.63;;;-0.30;85.10;;;;;;4969460;28;20421;-53
2022/03/11 01:56:38;;;;;;;12.02;9.80;;;-0.30;84.60;;;;;;4969032;28;20462;-53
2022/03/11 01:59:05;;;;;;;16.08;9.55;;;-0.40;85.10;;;;;;4966856;28;20051;-55
2022/03/11 02:01:31;;;;;;;11.10;8.88;;;-0.50;85.00;;;;;;4966561;28;20051;-56
2022/03/11 02:03:57;;;;;;;11.18;8.15;;;-0.50;84.30;;;;;;4968707;28;20078;-54
2022/03/11 02:06:23;;;;;;;12.32;8.70;;;-0.50;83.60;;;;;;4968358;28;20026;-53
2022/03/11 02:08:50;;;;;;;14.13;9.25;;;-0.60;82.80;;;;;;4969016;28;20026;-54
2022/03/11 02:11:16;;;;;;;11.98;8.82;;;-0.60;82.90;;;;;;4968602;28;20023;-54
2022/03/11 02:13:43;;;;;;;13.63;8.48;;;-0.60;82.40;;;;;;4969627;28;20035;-56
2022/03/11 02:16:12;;;;;;;14.68;9.02;;;-0.60;81.90;;;;;;4969059;28;20033;-54
2022/03/11 02:18:37;;;;;;;12.48;8.75;;;-0.60;82.40;;;;;;4968978;28;20038;-56
2022/03/11 02:21:03;;;;;;;11.15;8.32;;;-0.70;83.20;;;;;;4965364;28;20035;-54
2022/03/11 02:23:36;;;;;;;12.43;8.82;;;-0.80;83.90;;;;;;4947426;28;20038;-54
2022/03/11 02:26:02;;;;;;;12.75;8.77;;;-0.90;84.30;;;;;;4949200;29;20031;-54
2022/03/11 02:28:32;;;;;;;13.45;8.10;;;-1.00;84.00;;;;;;4948964;28;20367;-54
2022/03/11 02:30:58;;;;;;;15.30;9.20;;;-1.10;84.50;;;;;;4951126;28;20497;-54
2022/03/11 02:33:24;;;;;;;12.30;9.55;;;-1.20;85.00;;;;;;4952562;28;20118;-55
2022/03/11 02:35:49;;;;;;;16.20;10.05;;;-1.30;85.10;;;;;;4954660;28;20058;-53
2022/03/11 02:38:15;;;;;;;16.02;9.48;;;-1.40;85.90;;;;;;4973151;28;20390;-54
2022/03/11 02:40:40;;;;;;;12.45;8.65;;;-1.40;85.60;;;;;;4972277;28;20070;-55
2022/03/11 02:43:06;;;;;;;15.30;8.68;;;-1.40;84.90;;;;;;4971956;28;20482;-53
2022/03/11 02:45:32;;;;;;;13.73;8.50;;;-1.40;85.10;;;;;;4970993;28;20621;-54
2022/03/11 02:47:57;;;;;;;12.68;9.57;;;-1.40;85.30;;;;;;4972674;28;25275;-54
2022/03/11 02:50:23;;;;;;;13.63;9.75;;;-1.30;85.20;;;;;;4972144;28;20027;-55
2022/03/11 02:52:49;;;;;;;10.40;8.38;;;-1.30;85.30;;;;;;4972295;28;20490;-55
2022/03/11 02:55:14;;;;;;;16.73;10.23;;;-1.40;85.20;;;;;;4972015;28;20026;-55
2022/03/11 02:57:40;;;;;;;17.10;10.13;;;-1.40;85.10;;;;;;4972173;28;20031;-52
2022/03/11 03:00:06;;;;;;;13.68;8.18;;;-1.50;85.40;;;;;;4972193;28;20424;-53
2022/03/11 03:02:32;;;;;;;18.48;8.98;;;-1.60;85.60;;;;;;4971697;28;20029;-55
2022/03/11 03:04:57;;;;;;;11.55;9.10;;;-1.70;85.90;;;;;;4971887;28;20023;-54
2022/03/11 03:07:23;;;;;;;11.20;7.88;;;-1.70;86.30;;;;;;4971424;28;20585;-54
2022/03/11 03:09:49;;;;;;;14.27;8.57;;;-1.80;86.60;;;;;;4972255;28;20069;-52
2022/03/11 03:12:14;;;;;;;16.33;9.45;;;-1.90;86.30;;;;;;4971417;28;20508;-55
2022/03/11 03:14:40;;;;;;;10.70;8.30;;;-2.00;86.30;;;;;;4972339;28;20151;-54
2022/03/11 03:17:06;;;;;;;11.95;8.82;;;-2.00;86.70;;;;;;4972611;28;20026;-54
2022/03/11 03:19:32;;;;;;;13.20;9.00;;;-2.10;87.10;;;;;;4971573;28;20039;-54
2022/03/11 03:21:58;;;;;;;15.13;9.40;;;-2.10;87.30;;;;;;4971412;28;20589;-54
2022/03/11 03:24:23;;;;;;;12.45;8.30;;;-2.20;87.50;;;;;;4971472;28;20443;-54
2022/03/11 03:26:49;;;;;;;13.40;8.15;;;-2.20;87.70;;;;;;4986737;28;20517;-55
2022/03/11 03:29:14;;;;;;;12.32;8.20;;;-2.10;87.60;;;;;;4971627;28;20019;-55
2022/03/11 03:31:40;;;;;;;12.48;8.85;;;-2.00;87.10;;;;;;4971327;28;20038;-55
2022/03/11 03:34:05;;;;;;;11.63;8.90;;;-2.00;86.90;;;;;;4970514;28;20031;-53
2022/03/11 03:36:31;;;;;;;10.88;7.32;;;-2.00;87.20;;;;;;4970508;28;20109;-56
2022/03/11 03:38:57;;;;;;;15.15;7.47;;;-2.10;86.70;;;;;;4971444;28;20026;-54
2022/03/11 03:41:22;;;;;;;13.15;7.88;;;-2.10;86.00;;;;;;4970967;28;20019;-55
2022/03/11 03:43:48;;;;;;;11.82;7.40;;;-2.10;85.00;;;;;;4971169;28;20044;-54
2022/03/11 03:46:14;;;;;;;12.40;7.07;;;-2.10;85.00;;;;;;4969884;28;20027;-54
2022/03/11 03:48:41;;;;;;;10.20;7.35;;;-2.00;84.10;;;;;;4970907;28;20023;-54
2022/03/11 03:51:07;;;;;;;9.88;5.82;;;-1.90;83.00;;;;;;4970813;28;20035;-53
2022/03/11 03:53:32;;;;;;;8.63;6.45;;;-1.70;81.90;;;;;;4971406;28;20030;-54
2022/03/11 03:55:58;;;;;;;10.65;6.63;;;-1.70;81.30;;;;;;4971062;28;20133;-53
2022/03/11 03:58:23;;;;;;;9.63;7.30;;;-1.70;81.20;;;;;;4970664;28;20043;-54
2022/03/11 04:00:49;;;;;;;12.45;8.13;;;-1.70;81.90;;;;;;4971016;28;20435;-55
2022/03/11 04:03:15;;;;;;;12.63;7.90;;;-1.80;82.00;;;;;;4968271;28;20035;-54
2022/03/11 04:05:40;;;;;;;10.60;8.02;;;-1.80;82.40;;;;;;4970374;28;20027;-54
2022/03/11 04:08:06;;;;;;;11.25;6.38;;;-1.80;82.20;;;;;;4970909;28;20026;-55
2022/03/11 04:10:32;;;;;;;10.30;7.40;;;-1.70;80.70;;;;;;4970579;28;20034;-55
2022/03/11 04:12:57;;;;;;;11.32;7.13;;;-1.70;80.00;;;;;;4970562;28;20023;-54
2022/03/11 04:15:23;;;;;;;11.95;6.38;;;-1.60;78.20;;;;;;4970393;28;20041;-54
2022/03/11 04:17:49;;;;;;;12.32;6.97;;;-1.50;77.80;;;;;;4985390;28;20027;-52
2022/03/11 04:20:15;;;;;;;9.02;6.88;;;-1.50;78.80;;;;;;4969440;28;20030;-55
2022/03/11 04:22:44;;;;;;;10.48;6.70;;;-1.50;78.20;;;;;;4970544;28;20429;-54
2022/03/11 04:25:11;;;;;;;9.52;5.78;;;-1.50;78.90;;;;;;4970099;28;20541;-54
2022/03/11 04:27:37;;;;;;;8.88;6.38;;;-1.60;78.80;;;;;;4970655;28;20039;-54
2022/03/11 04:30:04;;;;;;;9.50;5.95;;;-1.50;78.60;;;;;;4970514;28;20031;-53
2022/03/11 04:32:30;;;;;;;10.63;6.40;;;-1.60;79.00;;;;;;4970208;28;20089;-54
2022/03/11 04:34:55;;;;;;;10.10;6.10;;;-1.70;79.10;;;;;;4970847;28;20471;-52
2022/03/11 04:37:21;;;;;;;14.20;6.97;;;-1.70;79.10;;;;;;4983519;28;20034;-54
2022/03/11 04:39:47;;;;;;;10.80;6.55;;;-1.80;79.00;;;;;;4969960;28;20038;-54
2022/03/11 04:42:12;;;;;;;10.00;6.22;;;-1.80;79.60;;;;;;4969715;28;20442;-55
2022/03/11 04:44:38;;;;;;;10.63;6.55;;;-1.80;78.80;;;;;;4970318;28;20078;-58
2022/03/11 04:47:05;;;;;;;11.55;6.88;;;-1.90;78.90;;;;;;4969124;28;20057;-54
2022/03/11 04:49:31;;;;;;;8.82;5.70;;;-1.90;78.50;;;;;;4970378;28;20037;-54
2022/03/11 04:51:57;;;;;;;11.13;5.82;;;-1.80;78.40;;;;;;4968985;28;20053;-54
2022/03/11 04:54:23;;;;;;;10.80;5.45;;;-1.80;78.30;;;;;;4969667;28;20023;-52
2022/03/11 04:56:48;;;;;;;11.75;6.50;;;-1.80;77.90;;;;;;4970530;28;20027;-55
2022/03/11 04:59:14;;;;;;;9.18;6.10;;;-1.80;78.10;;;;;;4970115;28;20116;-55
2022/03/11 05:01:39;;;;;;;9.20;5.35;;;-1.80;77.80;;;;;;4969131;28;20393;-56
2022/03/11 05:04:05;;;;;;;7.93;5.43;;;-1.80;77.30;;;;;;4968056;28;20474;-53
2022/03/11 05:06:31;;;;;;;8.32;6.20;;;-1.80;77.00;;;;;;4969897;28;20541;-55
2022/03/11 05:08:56;;;;;;;8.00;5.38;;;-1.80;76.80;;;;;;4969336;28;20023;-53
2022/03/11 05:11:22;;;;;;;10.00;5.50;;;-1.60;76.30;;;;;;4984970;28;20105;-54
2022/03/11 05:13:47;;;;;;;8.00;5.50;;;-1.60;76.10;;;;;;4969946;28;20023;-53
2022/03/11 05:16:13;;;;;;;7.97;5.60;;;-1.70;76.30;;;;;;4969188;28;20429;-55
2022/03/11 05:18:39;;;;;;;9.15;7.10;;;-1.60;77.00;;;;;;4970058;28;20031;-53
2022/03/11 05:21:04;;;;;;;7.07;5.78;;;-1.70;76.80;;;;;;4968897;28;20394;-54
2022/03/11 05:23:30;;;;;;;9.23;6.50;;;-1.70;76.90;;;;;;4970374;28;20039;-54
2022/03/11 05:25:56;;;;;;;11.15;6.05;;;-1.80;77.30;;;;;;4969516;28;20118;-53
2022/03/11 05:28:21;;;;;;;10.02;6.60;;;-1.90;79.10;;;;;;4969817;28;20030;-54
2022/03/11 05:30:47;;;;;;;9.68;5.38;;;-2.00;78.70;;;;;;4969480;28;20105;-55
2022/03/11 05:33:13;;;;;;;11.90;6.82;;;-2.10;79.70;;;;;;4969279;28;20086;-54
2022/03/11 05:35:38;;;;;;;9.93;6.05;;;-2.30;80.00;;;;;;4969797;28;20026;-56
2022/03/11 05:38:04;;;;;;;10.30;6.05;;;-2.30;80.00;;;;;;4969691;28;20023;-54
2022/03/11 05:40:30;;;;;;;13.25;7.82;;;-2.30;79.60;;;;;;4970095;28;20045;-55
2022/03/11 05:42:55;;;;;;;28.90;13.48;;;-2.30;79.60;;;;;;4969188;28;20101;-56
2022/03/11 05:45:21;;;;;;;12.85;8.30;;;-2.30;79.70;;;;;;4969052;28;20062;-53
2022/03/11 05:47:46;;;;;;;13.90;6.93;;;-2.30;79.80;;;;;;4984137;28;20029;-53
2022/03/11 05:50:12;;;;;;;12.02;7.65;;;-2.30;81.00;;;;;;4969646;28;20027;-54
2022/03/11 05:52:41;;;;;;;11.40;5.78;;;-2.30;80.20;;;;;;4969298;28;20030;-54
2022/03/11 05:55:07;;;;;;;7.47;5.25;;;-2.40;79.70;;;;;;4968239;28;20034;-55
2022/03/11 05:57:34;;;;;;;8.63;5.47;;;-2.40;79.50;;;;;;4969720;28;20038;-53
2022/03/11 06:00:00;;;;;;;14.48;5.55;;;-2.40;79.20;;;;;;4968587;28;20050;-54
2022/03/11 06:02:25;;;;;;;8.13;5.45;;;-2.30;79.00;;;;;;4969552;28;20026;-55
2022/03/11 06:04:51;;;;;;;14.68;5.22;;;-2.30;78.40;;;;;;4972783;28;20031;-55
2022/03/11 06:07:17;;;;;;;9.27;5.22;;;-2.20;77.90;;;;;;4973117;28;20530;-55
2022/03/11 06:09:42;;;;;;;10.48;5.93;;;-2.00;77.70;;;;;;4972978;28;20134;-54
2022/03/11 06:12:08;;;;;;;10.02;5.55;;;-1.90;77.90;;;;;;4972665;28;20417;-55
2022/03/11 06:14:34;;;;;;;11.38;5.40;;;-1.70;76.60;;;;;;4973298;28;20469;-54
2022/03/11 06:17:00;;;;;;;9.60;5.93;;;-1.10;80.50;;;;;;4972409;28;20035;-54
2022/03/11 06:19:25;;;;;;;8.18;5.65;;;0.20;76.40;;;;;;4973125;28;20568;-56
2022/03/11 06:21:51;;;;;;;9.55;5.75;;;1.70;73.90;;;;;;4971683;28;20441;-54
2022/03/11 06:24:17;;;;;;;6.70;5.35;;;3.20;66.40;;;;;;4972880;28;20038;-54
2022/03/11 06:26:43;;;;;;;7.18;5.55;;;4.40;62.30;;;;;;4972317;28;20023;-54
2022/03/11 06:29:10;;;;;;;8.93;6.25;;;5.60;60.90;;;;;;4972999;28;20023;-53
2022/03/11 06:31:36;;;;;;;7.05;5.70;;;6.80;58.70;;;;;;4972769;28;20027;-54
2022/03/11 06:34:02;;;;;;;7.03;5.05;;;8.20;53.60;;;;;;4972067;28;20512;-55
2022/03/11 06:36:28;;;;;;;8.65;5.65;;;9.00;50.00;;;;;;4972758;28;20031;-55
2022/03/11 06:38:54;;;;;;;8.13;5.40;;;9.20;49.00;;;;;;4986729;28;20355;-57
2022/03/11 06:41:21;;;;;;;6.50;5.32;;;9.50;45.70;;;;;;4972791;28;20027;-56
2022/03/11 06:43:46;;;;;;;5.10;4.55;;;9.80;45.70;;;;;;4971444;28;20118;-55
2022/03/11 06:46:12;;;;;;;6.00;5.32;;;10.40;45.10;;;;;;4972832;28;20114;-57
2022/03/11 06:48:38;;;;;;;6.30;5.35;;;11.10;43.50;;;;;;4972179;28;20030;-55
2022/03/11 06:51:05;;;;;;;7.88;5.55;;;11.40;42.20;;;;;;4972107;28;20033;-55
2022/03/11 06:53:32;;;;;;;6.90;5.25;;;11.50;40.60;;;;;;4972977;28;20105;-56
2022/03/11 06:55:58;;;;;;;6.22;5.63;;;11.00;40.60;;;;;;4971676;28;20490;-55
2022/03/11 06:58:24;;;;;;;8.90;5.88;;;11.00;41.40;;;;;;4972157;28;20494;-56
2022/03/11 07:00:49;;;;;;;6.40;5.68;;;10.90;42.20;;;;;;4971380;28;20368;-55
2022/03/11 07:03:15;;;;;;;7.32;6.25;;;11.00;43.10;;;;;;4971203;28;20057;-56
2022/03/11 07:05:41;;;;;;;7.07;5.88;;;11.20;42.40;;;;;;4971084;28;20026;-55
2022/03/11 07:08:08;;;;;;;7.70;5.85;;;11.30;42.50;;;;;;4987240;28;20030;-55
2022/03/11 07:10:34;;;;;;;7.80;5.88;;;11.90;42.50;;;;;;4971885;28;20027;-54
2022/03/11 07:13:00;;;;;;;15.93;5.53;;;12.90;42.00;;;;;;4971462;28;20490;-55
2022/03/11 07:15:25;;;;;;;8.85;6.25;;;12.90;38.00;;;;;;4971570;28;20077;-55
2022/03/11 07:17:51;;;;;;;7.15;5.40;;;12.30;38.00;;;;;;4971259;28;20046;-55
2022/03/11 07:20:17;;;;;;;7.13;5.32;;;12.90;38.10;;;;;;4972165;28;20065;-56
2022/03/11 07:22:47;;;;;;;7.32;6.47;;;13.70;37.10;;;;;;4971098;28;20027;-56
2022/03/11 07:25:13;;;;;;;6.28;5.10;;;14.30;36.40;;;;;;4971352;28;20375;-55
2022/03/11 07:27:39;;;;;;;10.13;6.10;;;14.90;35.70;;;;;;4970230;28;20760;-56
2022/03/11 07:30:05;;;;;;;6.75;6.05;;;15.40;34.70;;;;;;4971687;28;20074;-56
2022/03/11 07:32:31;;;;;;;8.68;5.95;;;15.10;34.00;;;;;;4971708;28;20031;-56
2022/03/11 07:34:57;;;;;;;6.88;5.78;;;15.40;34.50;;;;;;4971315;28;20533;-56
2022/03/11 07:37:22;;;;;;;8.00;5.35;;;16.30;34.30;;;;;;4971420;28;20050;-56
2022/03/11 07:39:48;;;;;;;6.38;5.75;;;17.10;33.90;;;;;;4970310;28;20027;-57
2022/03/11 07:42:14;;;;;;;6.25;5.55;;;17.70;32.20;;;;;;4970895;28;20437;-57
2022/03/11 07:44:41;;;;;;;6.07;5.32;;;18.00;32.40;;;;;;4970269;28;20030;-57
2022/03/11 07:47:07;;;;;;;6.65;5.47;;;17.40;32.80;;;;;;4971986;28;20039;-56
2022/03/11 07:49:32;;;;;;;6.70;6.10;;;16.70;31.70;;;;;;4971586;28;20093;-57
2022/03/11 07:51:58;;;;;;;6.32;5.65;;;16.80;32.30;;;;;;4970473;28;20035;-56
2022/03/11 07:54:24;;;;;;;8.52;5.50;;;17.40;32.50;;;;;;4970970;28;20023;-56
2022/03/11 07:56:50;;;;;;;6.25;5.65;;;17.20;31.40;;;;;;4970861;28;20019;-55
2022/03/11 07:59:15;;;;;;;9.65;5.70;;;16.50;32.00;;;;;;4971608;28;20035;-57
2022/03/11 08:01:41;;;;;;;6.75;6.05;;;17.00;32.00;;;;;;4969857;28;20050;-56
2022/03/11 08:04:07;;;;;;;8.48;5.15;;;17.00;31.30;;;;;;4971354;28;20042;-56
2022/03/11 08:06:33;;;;;;;6.57;5.95;;;16.90;32.50;;;;;;4971215;28;20023;-56
2022/03/11 08:08:59;;;;;;;6.57;5.53;;;16.40;32.80;;;;;;4969998;28;20039;-56
2022/03/11 08:11:24;;;;;;;5.90;5.30;;;15.80;34.30;;;;;;4969694;28;20029;-55
2022/03/11 08:13:50;;;;;;;5.60;4.90;;;16.10;33.30;;;;;;4970301;28;20043;-54
2022/03/11 08:16:16;;;;;;;8.85;5.13;;;16.10;32.40;;;;;;4970181;28;20043;-55
2022/03/11 08:18:43;;;;;;;7.00;4.78;;;16.20;32.60;;;;;;4970258;28;20670;-56
2022/03/11 08:21:10;;;;;;;4.97;4.47;;;16.70;32.60;;;;;;4969840;28;20442;-56
2022/03/11 08:23:36;;;;;;;6.32;5.72;;;17.10;31.10;;;;;;4962477;28;20481;-57
2022/03/11 08:26:02;;;;;;;4.88;4.43;;;17.40;30.60;;;;;;4968638;28;20042;-57
2022/03/11 08:28:28;;;;;;;8.10;5.55;;;17.60;30.30;;;;;;4969833;28;20030;-56
2022/03/11 08:30:54;;;;;;;7.18;4.95;;;17.60;30.20;;;;;;4970461;28;20019;-55
2022/03/11 08:33:22;;;;;;;5.55;4.60;;;17.00;29.40;;;;;;4970383;28;20049;-57
2022/03/11 08:35:49;;;;;;;6.47;5.38;;;16.60;30.80;;;;;;4969358;28;20114;-56
2022/03/11 08:38:14;;;;;;;5.40;4.25;;;17.50;31.30;;;;;;4970056;28;20041;-56
2022/03/11 08:40:41;;;;;;;8.40;4.38;;;17.10;30.30;;;;;;4969937;28;20565;-55
2022/03/11 08:43:07;;;;;;;5.07;4.40;;;16.50;29.40;;;;;;4970106;28;20033;-55
2022/03/11 08:45:33;;;;;;;4.20;3.80;;;15.80;29.60;;;;;;4970557;28;20026;-56
2022/03/11 08:47:59;;;;;;;5.35;4.47;;;15.50;30.90;;;;;;4969494;28;20113;-56
2022/03/11 08:50:26;;;;;;;4.63;4.15;;;15.20;32.10;;;;;;4970798;28;20019;-55
2022/03/11 08:52:52;;;;;;;5.10;4.57;;;15.10;31.30;;;;;;4969304;28;20093;-56
2022/03/11 08:55:18;;;;;;;6.18;4.15;;;14.50;32.90;;;;;;4970513;28;20430;-55
2022/03/11 08:57:51;;;;;;;5.65;3.83;;;14.60;33.30;;;;;;4970396;28;20031;-56
2022/03/11 09:00:19;;;;;;;4.40;3.80;;;14.50;30.90;;;;;;4969218;28;20490;-55
2022/03/11 09:02:45;;;;;;;4.45;3.97;;;15.00;31.40;;;;;;4969707;28;20106;-56
2022/03/11 09:05:11;;;;;;;6.00;4.10;;;14.70;30.20;;;;;;4969639;28;20039;-55
2022/03/11 09:07:37;;;;;;;9.65;4.57;;;14.90;30.70;;;;;;4969969;28;20034;-57
2022/03/11 09:10:05;;;;;;;4.20;3.50;;;14.60;30.00;;;;;;4969655;28;20027;-57
2022/03/11 09:12:31;;;;;;;4.30;3.75;;;14.10;32.00;;;;;;4969627;28;20042;-55
2022/03/11 09:14:57;;;;;;;12.23;3.42;;;13.40;30.60;;;;;;4970098;28;20031;-54
2022/03/11 09:17:22;;;;;;;5.32;3.65;;;13.30;32.20;;;;;;4970117;28;20077;-55
2022/03/11 09:19:49;;;;;;;5.18;3.55;;;13.80;31.30;;;;;;4969772;28;20398;-56
2022/03/11 09:22:17;;;;;;;4.40;3.75;;;13.90;32.00;;;;;;4967801;28;20398;-55
2022/03/11 09:24:44;;;;;;;4.15;3.53;;;14.30;31.40;;;;;;4969051;28;20050;-56
2022/03/11 09:27:11;;;;;;;28.40;5.13;;;14.30;29.80;;;;;;4969504;28;20042;-55
2022/03/11 09:29:37;;;;;;;3.85;3.40;;;13.70;30.80;;;;;;4970486;28;20019;-54
2022/03/11 09:32:04;;;;;;;4.28;3.30;;;13.90;29.90;;;;;;4968160;28;20056;-54
2022/03/11 09:34:30;;;;;;;4.65;3.75;;;14.50;33.60;;;;;;4967385;28;20023;-55
2022/03/11 09:36:56;;;;;;;8.27;4.18;;;14.50;30.40;;;;;;4969059;28;21246;-56
2022/03/11 09:39:23;;;;;;;3.83;3.42;;;14.20;31.90;;;;;;4972363;28;20109;-56
2022/03/11 09:41:50;;;;;;;4.68;4.05;;;14.20;31.00;;;;;;4974189;28;20470;-55
2022/03/11 09:44:17;;;;;;;5.55;4.40;;;14.10;30.90;;;;;;4973585;28;20561;-56
2022/03/11 09:46:44;;;;;;;8.25;4.13;;;13.90;31.50;;;;;;4974162;28;20416;-56
2022/03/11 09:49:12;;;;;;;9.23;4.30;;;13.90;31.90;;;;;;4973022;28;20043;-55
2022/03/11 09:51:40;;;;;;;5.45;4.22;;;13.80;31.40;;;;;;4973225;28;20031;-55
2022/03/11 09:54:06;;;;;;;4.95;3.63;;;13.90;31.50;;;;;;4988599;28;20022;-56
2022/03/11 09:56:35;;;;;;;4.82;3.90;;;14.60;32.70;;;;;;4973297;28;20022;-55
2022/03/11 09:59:00;;;;;;;4.20;3.80;;;15.30;30.90;;;;;;4973161;28;20508;-55
2022/03/11 10:01:26;;;;;;;5.30;4.13;;;15.70;29.20;;;;;;4972113;28;20032;-55
2022/03/11 10:03:52;;;;;;;7.18;4.78;;;14.90;29.30;;;;;;4973031;28;20461;-56
2022/03/11 10:06:40;;;;;;;7.18;3.90;;;14.20;30.50;;;;;;4987941;28;20050;-55
2022/03/11 10:09:30;;;;;;;4.72;4.20;;;13.70;31.40;;;;;;4973393;28;20034;-56
2022/03/11 10:11:56;;;;;;;6.90;4.28;;;13.50;32.40;;;;;;4972485;28;20023;-54
2022/03/11 10:14:34;;;;;;;5.93;3.70;;;13.50;33.20;;;;;;4973340;28;20031;-55
2022/03/11 10:17:01;;;;;;;4.70;3.90;;;13.10;33.80;;;;;;4973058;28;20094;-55
2022/03/11 10:19:26;;;;;;;5.28;4.15;;;12.90;33.30;;;;;;4969592;28;20147;-55
2022/03/11 10:21:56;;;;;;;6.78;4.50;;;12.60;35.90;;;;;;4972267;28;20422;-55
2022/03/11 10:24:22;;;;;;;5.97;3.90;;;12.50;33.80;;;;;;4971955;28;20034;-55
2022/03/11 10:26:53;;;;;;;4.30;3.70;;;12.50;33.70;;;;;;4972957;28;20435;-55
2022/03/11 10:29:23;;;;;;;6.30;4.53;;;12.50;33.10;;;;;;4972316;28;20026;-55
2022/03/11 10:31:51;;;;;;;4.40;3.80;;;12.10;34.10;;;;;;4972641;28;20061;-55
2022/03/11 10:34:24;;;;;;;7.88;4.63;;;12.50;34.00;;;;;;4972760;28;20102;-55
2022/03/11 10:36:50;;;;;;;6.88;4.10;;;12.50;33.60;;;;;;4971480;28;20102;-54
2022/03/11 10:39:19;;;;;;;4.78;3.95;;;12.40;35.30;;;;;;4972521;28;20485;-56
2022/03/11 10:41:46;;;;;;;4.85;3.83;;;12.20;33.60;;;;;;4969667;28;20022;-56
2022/03/11 10:44:12;;;;;;;5.95;4.65;;;12.10;33.30;;;;;;4973384;28;20486;-55
2022/03/11 10:46:39;;;;;;;3.40;2.92;;;12.30;32.80;;;;;;4972042;28;20027;-54
2022/03/11 10:49:05;;;;;;;5.45;4.18;;;12.40;36.80;;;;;;4971675;28;20046;-55
2022/03/11 10:51:33;;;;;;;7.13;3.83;;;12.40;34.60;;;;;;4970955;28;20114;-54
2022/03/11 10:54:00;;;;;;;6.47;4.13;;;12.00;33.50;;;;;;4973067;28;20037;-56
2022/03/11 10:56:39;;;;;;;6.00;4.65;;;12.00;36.00;;;;;;4973309;28;20097;-55
2022/03/11 10:59:06;;;;;;;5.40;4.10;;;12.00;34.20;;;;;;4971067;28;20494;-55
2022/03/11 11:01:37;;;;;;;5.18;4.25;;;12.00;34.60;;;;;;4969892;28;20559;-56
2022/03/11 11:04:07;;;;;;;5.10;4.38;;;11.90;35.70;;;;;;4971296;28;20561;-54
2022/03/11 11:06:33;;;;;;;5.15;3.92;;;11.90;35.60;;;;;;4972472;28;20023;-55
2022/03/11 11:09:01;;;;;;;7.13;4.53;;;11.90;36.10;;;;;;4986856;28;20093;-55
2022/03/11 11:11:26;;;;;;;4.88;4.30;;;11.90;36.00;;;;;;4971313;28;20119;-55
2022/03/11 11:13:52;;;;;;;5.93;3.95;;;11.70;35.70;;;;;;4971239;28;20107;-54
2022/03/11 11:16:24;;;;;;;8.30;4.20;;;11.70;37.10;;;;;;4970672;28;20031;-55
2022/03/11 11:18:51;;;;;;;7.13;4.28;;;11.80;36.30;;;;;;4969496;28;20078;-56
2022/03/11 11:21:24;;;;;;;7.43;3.85;;;11.80;36.30;;;;;;4972143;28;20031;-53
2022/03/11 11:23:55;;;;;;;5.50;4.10;;;11.60;35.90;;;;;;4971541;28;20062;-54
2022/03/11 11:26:25;;;;;;;7.80;4.15;;;11.40;34.70;;;;;;4972521;28;20512;-56
2022/03/11 11:28:54;;;;;;;5.43;4.30;;;11.40;36.60;;;;;;4970564;28;20089;-55
2022/03/11 11:31:21;;;;;;;5.30;4.43;;;11.40;36.90;;;;;;4970850;28;20046;-54
2022/03/11 11:33:48;;;;;;;6.28;4.65;;;11.50;36.00;;;;;;4961478;28;20035;-55
2022/03/11 11:36:31;;;;;;;9.18;4.25;;;11.60;38.30;;;;;;4951756;28;20116;-55
2022/03/11 11:39:01;;;;;;;6.85;5.75;;;11.70;36.40;;;;;;4950839;28;20110;-56
2022/03/11 11:41:27;;;;;;;6.50;4.82;;;11.40;37.40;;;;;;4952678;28;20612;-53
2022/03/11 11:44:04;;;;;;;7.70;4.25;;;11.30;37.80;;;;;;4952285;28;20039;-55
2022/03/11 11:46:32;;;;;;;5.47;4.85;;;11.20;37.70;;;;;;4980464;28;20035;-54
2022/03/11 11:49:05;;;;;;;5.53;4.32;;;10.90;38.10;;;;;;4971835;28;20614;-55
2022/03/11 11:51:36;;;;;;;6.75;4.13;;;10.90;37.20;;;;;;4970152;28;20762;-56
2022/03/11 11:54:11;;;;;;;4.50;4.10;;;10.80;37.80;;;;;;4970630;28;20029;-55
2022/03/11 11:57:02;;;;;;;6.57;4.82;;;11.20;38.00;;;;;;4970211;28;20030;-56
2022/03/11 11:59:32;;;;;;;5.10;4.43;;;11.30;37.30;;;;;;4939289;28;20074;-54
2022/03/11 12:01:59;;;;;;;4.72;4.03;;;11.20;38.90;;;;;;4949813;28;20131;-55
2022/03/11 12:04:38;;;;;;;5.40;4.00;;;11.00;37.60;;;;;;4965660;28;20762;-54
2022/03/11 12:07:06;;;;;;;8.05;4.40;;;11.20;38.60;;;;;;4970650;28;20034;-54
2022/03/11 12:09:40;;;;;;;5.90;5.25;;;10.90;37.70;;;;;;4970304;28;20454;-55
2022/03/11 12:12:19;;;;;;;5.82;4.40;;;10.90;39.40;;;;;;4970553;28;20031;-54
2022/03/11 12:15:08;;;;;;;5.32;4.15;;;10.90;39.00;;;;;;4970638;28;20026;-55
2022/03/11 12:17:37;;;;;;;7.28;4.47;;;11.00;40.10;;;;;;4959427;28;20121;-54
2022/03/11 12:20:35;;;;;;;5.03;4.47;;;11.10;38.50;;;;;;4971159;28;20030;-56
2022/03/11 12:23:14;;;;;;;7.80;5.20;;;11.10;39.10;;;;;;4970409;28;20039;-56
2022/03/11 12:25:39;;;;;;;6.35;5.20;;;11.00;38.80;;;;;;4969104;28;20065;-56
2022/03/11 12:28:18;;;;;;;6.15;5.28;;;10.80;40.70;;;;;;4970195;28;20059;-54
2022/03/11 12:30:47;;;;;;;6.13;4.80;;;10.70;40.00;;;;;;4970403;28;20023;-54
2022/03/11 12:33:17;;;;;;;6.85;4.90;;;10.80;38.90;;;;;;4969419;28;20086;-55
2022/03/11 12:35:45;;;;;;;8.38;4.47;;;11.00;39.20;;;;;;4970623;28;20022;-55
2022/03/11 12:38:16;;;;;;;6.18;4.35;;;11.10;39.30;;;;;;4967952;28;20370;-55
2022/03/11 12:40:43;;;;;;;5.38;4.32;;;11.20;40.20;;;;;;4970658;28;20585;-55
2022/03/11 12:43:11;;;;;;;5.30;4.80;;;11.30;40.40;;;;;;4969127;28;20041;-55